Terminal Aerodrome Forecast
Issued by NWS

Home | Current Version | Previous Version | Text Only | Print | Product List | Glossary On
Versions: 1 2 3 4 5 6 7 8 9 10 11 12 13 14 15 16 17 18 19 20 21 22 23 24 25
000
FTUS44 KEWX 182300
TAFSSF
TAF
KSSF 182325Z 1900/1924 06006KT P6SM SCT070 OVC250
     FM190100 05004KT P6SM VCSH OVC015
     FM190300 06004KT 3SM -SHRA BR OVC007
     FM190600 03007KT 3SM SHRA BR OVC004
      TEMPO 1907/1911 2SM TSRA BR BKN006 OVC035CB
     FM191600 03008KT P6SM VCSH OVC010
     FM192100 02008KT P6SM OVC025=

USA.gov is the U.S. government's official web portal to all federal, state and local government web resources and services.